Time;durP1;ratioP1;P1;durP2;ratioP2;P2;SDS_P1;SDS_P2;PMS_P1;PMS_P2;Temp;Humidity;BMP_temperature;BMP_pressure;BME280_temperature;BME280_humidity;BME280_pressure;Samples;Min_cycle;Max_cycle;Signal;HPM_P1;HPM_P2
2023/05/17 00:01:22;;;;;;;;;;;;;;;10.51;71.94;92641.19;2065291;69;20079;-75
2023/05/17 00:03:48;;;;;;;;;;;;;;;10.46;73.20;92639.47;2067512;69;20149;-74
2023/05/17 00:06:13;;;;;;;;;;;;;;;10.45;73.36;92640.81;2054821;70;20085;-75
2023/05/17 00:08:40;;;;;;;;;;;;;;;10.45;72.63;92644.38;2054997;69;20054;-76
2023/05/17 00:11:07;;;;;;;;;;;;;;;10.52;72.09;92654.63;2068078;69;20410;-77
2023/05/17 00:13:32;;;;;;;;;;;;;;;10.42;72.96;92660.38;2055498;69;20054;-75
2023/05/17 00:16:04;;;;;;;;;;;;;;;10.48;72.96;92645.22;2055150;70;20139;-75
2023/05/17 00:18:30;;;;;;;;;;;;;;;10.43;73.40;92647.78;2055271;69;20231;-75
2023/05/17 00:20:56;;;;;;;;;;;;;;;10.35;73.12;92647.28;2068292;69;20054;-74
2023/05/17 00:23:25;;;;;;;;;;;;;;;10.41;73.21;92653.28;2055060;70;20074;-76
2023/05/17 00:25:51;;;;;;;;;;;;;;;10.45;73.07;92663.34;2055157;70;20090;-75
2023/05/17 00:28:16;;;;;;;;;;;;;;;10.38;71.55;92651.69;2055070;70;20101;-75
2023/05/17 00:30:41;;;;;;;;;;;;;;;10.33;68.94;92657.69;2068215;69;20417;-75
2023/05/17 00:33:07;;;;;;;;;;;;;;;9.74;67.47;92666.00;2055252;70;20537;-76
2023/05/17 00:35:33;;;;;;;;;;;;;;;10.05;66.93;92656.66;2048996;70;20235;-75
2023/05/17 00:37:58;;;;;;;;;;;;;;;10.20;69.06;92659.00;2068027;69;20050;-76
2023/05/17 00:40:24;;;;;;;;;;;;;;;10.19;69.61;92660.34;2067870;69;20058;-75
2023/05/17 00:42:50;;;;;;;;;;;;;;;10.13;70.05;92659.97;2055019;70;20061;-76
2023/05/17 00:45:16;;;;;;;;;;;;;;;10.13;70.01;92652.28;2057657;69;20134;-75
2023/05/17 00:47:43;;;;;;;;;;;;;;;10.06;70.30;92655.31;2048178;70;20058;-76
2023/05/17 00:50:10;;;;;;;;;;;;;;;9.85;69.90;92668.13;2051948;70;20544;-76
2023/05/17 00:52:37;;;;;;;;;;;;;;;9.96;68.71;92657.50;2048443;70;20082;-75
2023/05/17 00:55:04;;;;;;;;;;;;;;;9.77;70.44;92664.81;2048419;70;20128;-76
2023/05/17 00:57:30;;;;;;;;;;;;;;;9.81;69.43;92670.69;2045923;69;20063;-75
2023/05/17 00:59:56;;;;;;;;;;;;;;;9.72;69.89;92659.53;2051636;69;20516;-75
2023/05/17 01:02:22;;;;;;;;;;;;;;;9.80;71.17;92674.09;2051512;70;20050;-75
2023/05/17 01:04:51;;;;;;;;;;;;;;;9.79;70.44;92673.34;2048510;70;20497;-75
2023/05/17 01:07:17;;;;;;;;;;;;;;;9.80;70.85;92677.63;2045964;70;20086;-75
2023/05/17 01:09:45;;;;;;;;;;;;;;;9.76;70.86;92682.25;2048603;70;20047;-75
2023/05/17 01:12:21;;;;;;;;;;;;;;;9.74;71.77;92682.88;2048507;70;20051;-76
2023/05/17 01:14:57;;;;;;;;;;;;;;;9.73;72.36;92675.06;2051624;70;20390;-75
2023/05/17 01:17:38;;;;;;;;;;;;;;;9.64;72.26;92676.63;2048430;69;20413;-75
2023/05/17 01:20:17;;;;;;;;;;;;;;;9.75;70.84;92687.16;2051547;70;20097;-76
2023/05/17 01:22:52;;;;;;;;;;;;;;;9.52;71.06;92679.38;2051645;69;20066;-76
2023/05/17 01:25:38;;;;;;;;;;;;;;;9.39;70.02;92682.72;2051687;70;20074;-76
2023/05/17 01:28:04;;;;;;;;;;;;;;;9.42;70.24;92681.53;2048629;70;20112;-76
2023/05/17 01:30:31;;;;;;;;;;;;;;;9.48;70.91;92689.59;2048541;70;20082;-75
2023/05/17 01:32:57;;;;;;;;;;;;;;;9.29;71.98;92688.44;2048558;70;20056;-77
2023/05/17 01:35:24;;;;;;;;;;;;;;;9.34;71.81;92690.16;2051727;70;20095;-76
2023/05/17 01:37:53;;;;;;;;;;;;;;;9.39;70.50;92688.34;2048230;70;20050;-77
2023/05/17 01:40:19;;;;;;;;;;;;;;;9.34;71.10;92697.84;2051982;70;20054;-78
2023/05/17 01:42:47;;;;;;;;;;;;;;;8.97;72.82;92697.53;2048192;69;20622;-77
2023/05/17 01:45:25;;;;;;;;;;;;;;;9.20;71.71;92697.66;2050959;70;20482;-74
2023/05/17 01:47:53;;;;;;;;;;;;;;;9.29;71.73;92701.75;2051473;70;20096;-74
2023/05/17 01:50:25;;;;;;;;;;;;;;;8.89;70.25;92718.13;2054099;69;20062;-74
2023/05/17 01:52:55;;;;;;;;;;;;;;;9.26;68.47;92703.69;2055414;70;20086;-73
2023/05/17 01:55:33;;;;;;;;;;;;;;;9.11;70.34;92712.50;2055584;70;20420;-75
2023/05/17 01:58:00;;;;;;;;;;;;;;;9.10;71.15;92713.84;2055639;69;20046;-74
2023/05/17 02:00:28;;;;;;;;;;;;;;;9.18;69.79;92705.25;2068717;69;20058;-74
2023/05/17 02:02:53;;;;;;;;;;;;;;;9.10;70.40;92708.97;2068610;69;20178;-74
2023/05/17 02:05:19;;;;;;;;;;;;;;;9.24;70.53;92714.06;2055204;70;20143;-75
2023/05/17 02:07:44;;;;;;;;;;;;;;;8.88;71.57;92713.09;2067801;69;20157;-76
2023/05/17 02:10:10;;;;;;;;;;;;;;;9.09;70.92;92715.19;2068202;69;20062;-75
2023/05/17 02:12:40;;;;;;;;;;;;;;;9.25;70.88;92716.25;2065985;69;20057;-75
2023/05/17 02:15:08;;;;;;;;;;;;;;;9.03;72.07;92720.41;2055305;70;20066;-76
2023/05/17 02:17:33;;;;;;;;;;;;;;;9.13;71.89;92719.00;2055664;70;20171;-75
2023/05/17 02:19:59;;;;;;;;;;;;;;;9.07;71.40;92715.81;2067552;69;20302;-75
2023/05/17 02:22:24;;;;;;;;;;;;;;;9.09;71.18;92718.75;2067759;69;20047;-75
2023/05/17 02:24:50;;;;;;;;;;;;;;;8.94;72.20;92727.56;2068783;69;20149;-75
2023/05/17 02:27:15;;;;;;;;;;;;;;;8.86;71.94;92724.94;2068821;69;20112;-76
2023/05/17 02:29:41;;;;;;;;;;;;;;;8.97;72.14;92717.19;2054916;70;20048;-75
2023/05/17 02:32:06;;;;;;;;;;;;;;;8.95;72.42;92720.59;2055728;70;20398;-74
2023/05/17 02:34:32;;;;;;;;;;;;;;;8.80;72.33;92718.19;2055853;69;20445;-75
2023/05/17 02:36:59;;;;;;;;;;;;;;;8.77;73.53;92720.13;2055854;69;20503;-74
2023/05/17 02:39:24;;;;;;;;;;;;;;;8.93;72.60;92716.91;2055351;70;20165;-75
2023/05/17 02:41:52;;;;;;;;;;;;;;;8.94;72.92;92716.34;2055701;70;20150;-76
2023/05/17 02:44:19;;;;;;;;;;;;;;;8.98;70.99;92721.47;2055680;69;20135;-75
2023/05/17 02:46:44;;;;;;;;;;;;;;;9.11;71.27;92724.47;2068823;69;20489;-77
2023/05/17 02:49:11;;;;;;;;;;;;;;;9.00;71.86;92716.72;2068856;69;20115;-76
2023/05/17 02:51:37;;;;;;;;;;;;;;;9.05;72.29;92723.34;2055439;69;20050;-77
2023/05/17 02:54:02;;;;;;;;;;;;;;;9.02;72.00;92730.88;2065813;69;20054;-75
2023/05/17 02:56:29;;;;;;;;;;;;;;;9.00;71.53;92724.41;2055643;70;20046;-74
2023/05/17 02:58:56;;;;;;;;;;;;;;;8.95;72.40;92726.22;2068253;69;20046;-74
2023/05/17 03:01:22;;;;;;;;;;;;;;;8.96;72.15;92726.97;2068615;69;20433;-76
2023/05/17 03:03:48;;;;;;;;;;;;;;;9.08;71.64;92725.69;2068490;69;20111;-74
2023/05/17 03:06:15;;;;;;;;;;;;;;;9.07;71.75;92729.84;2068677;69;20082;-74
2023/05/17 03:08:42;;;;;;;;;;;;;;;9.12;71.12;92736.47;2068923;69;20054;-74
2023/05/17 03:11:07;;;;;;;;;;;;;;;9.12;71.26;92730.84;2068818;69;20433;-74
2023/05/17 03:13:33;;;;;;;;;;;;;;;9.09;70.84;92738.41;2055956;70;20187;-76
2023/05/17 03:15:59;;;;;;;;;;;;;;;9.04;71.96;92741.53;2068691;69;20115;-76
2023/05/17 03:18:25;;;;;;;;;;;;;;;9.01;71.58;92742.72;2068588;69;20054;-76
2023/05/17 03:20:51;;;;;;;;;;;;;;;9.09;70.92;92743.28;2068798;69;20099;-76
2023/05/17 03:23:17;;;;;;;;;;;;;;;9.00;72.43;92735.66;2068592;69;20467;-76
2023/05/17 03:25:51;;;;;;;;;;;;;;;9.03;71.61;92746.44;2068775;69;20228;-75
2023/05/17 03:28:18;;;;;;;;;;;;;;;9.06;71.71;92741.66;2055705;70;20082;-75
2023/05/17 03:30:45;;;;;;;;;;;;;;;9.04;71.47;92749.97;2068918;69;20117;-77
2023/05/17 03:33:13;;;;;;;;;;;;;;;9.03;71.92;92749.25;2065702;69;20058;-76
2023/05/17 03:35:42;;;;;;;;;;;;;;;8.97;72.61;92751.63;2055644;70;20500;-76
2023/05/17 03:38:08;;;;;;;;;;;;;;;8.99;72.03;92757.38;2065781;69;20045;-77
2023/05/17 03:40:34;;;;;;;;;;;;;;;8.98;72.34;92755.91;2068536;69;20066;-77
2023/05/17 03:43:02;;;;;;;;;;;;;;;8.96;72.58;92763.47;2068676;69;20054;-76
2023/05/17 03:45:27;;;;;;;;;;;;;;;8.99;71.89;92762.25;2068091;69;20495;-74
2023/05/17 03:47:53;;;;;;;;;;;;;;;9.04;71.54;92773.16;2067703;69;20171;-76
2023/05/17 03:50:18;;;;;;;;;;;;;;;8.95;72.09;92767.59;2071055;69;20084;-75
2023/05/17 03:52:45;;;;;;;;;;;;;;;9.00;71.52;92770.09;2065559;69;20064;-76
2023/05/17 03:55:12;;;;;;;;;;;;;;;8.97;72.19;92773.34;2071072;69;20107;-76
2023/05/17 03:57:37;;;;;;;;;;;;;;;8.98;72.28;92788.84;2070147;69;20084;-74
2023/05/17 04:00:23;;;;;;;;;;;;;;;;;;;;;
2023/05/17 04:02:55;;;;;;;;;;;;;;;9.03;71.57;92782.94;2068037;69;20113;-76
2023/05/17 04:05:22;;;;;;;;;;;;;;;9.01;71.74;92788.41;2067779;69;20123;-76
2023/05/17 04:07:48;;;;;;;;;;;;;;;9.05;72.24;92794.28;2066827;69;20060;-76
2023/05/17 04:10:13;;;;;;;;;;;;;;;9.09;71.53;92799.44;2067104;69;20089;-76
2023/05/17 04:12:39;;;;;;;;;;;;;;;9.05;71.95;92796.38;2068470;69;20088;-75
2023/05/17 04:15:05;;;;;;;;;;;;;;;9.13;70.93;92799.72;2067720;69;20076;-76
2023/05/17 04:17:31;;;;;;;;;;;;;;;9.10;71.94;92800.91;2067833;69;20152;-76
2023/05/17 04:19:59;;;;;;;;;;;;;;;9.04;71.49;92806.88;2064033;69;20122;-76
2023/05/17 04:22:25;;;;;;;;;;;;;;;9.15;71.27;92803.41;2064327;69;20521;-76
2023/05/17 04:24:51;;;;;;;;;;;;;;;9.12;71.82;92807.41;2067653;69;20100;-77
2023/05/17 04:27:17;;;;;;;;;;;;;;;9.06;71.86;92809.06;2065008;69;20542;-77
2023/05/17 04:29:42;;;;;;;;;;;;;;;9.07;72.13;92814.09;2067907;69;20052;-75
2023/05/17 04:32:08;;;;;;;;;;;;;;;9.03;71.46;92811.00;2070381;69;20049;-76
2023/05/17 04:34:35;;;;;;;;;;;;;;;8.90;71.50;92812.25;2070656;69;20068;-75
2023/05/17 04:37:02;;;;;;;;;;;;;;;8.70;71.30;92821.34;2070280;69;20040;-75
2023/05/17 04:39:30;;;;;;;;;;;;;;;8.77;71.64;92814.81;2070806;69;20113;-75
2023/05/17 04:41:55;;;;;;;;;;;;;;;9.00;70.78;92814.28;2070710;69;20084;-76
2023/05/17 04:44:22;;;;;;;;;;;;;;;9.01;70.42;92824.91;2071072;69;20407;-75
2023/05/17 04:46:47;;;;;;;;;;;;;;;9.04;69.92;92823.72;2071227;69;20076;-75
2023/05/17 04:49:14;;;;;;;;;;;;;;;8.96;70.02;92828.78;2071241;69;20118;-75
2023/05/17 04:51:41;;;;;;;;;;;;;;;9.10;70.09;92826.94;2070959;69;20106;-75
2023/05/17 04:54:08;;;;;;;;;;;;;;;9.12;69.72;92832.69;2071196;69;20118;-75
2023/05/17 04:56:35;;;;;;;;;;;;;;;8.99;70.85;92821.22;2071153;69;20485;-75
2023/05/17 04:59:03;;;;;;;;;;;;;;;9.01;70.46;92824.16;2071155;69;20551;-75
2023/05/17 05:01:30;;;;;;;;;;;;;;;9.22;69.33;92829.09;2068445;69;20512;-75
2023/05/17 05:03:57;;;;;;;;;;;;;;;9.37;68.74;92829.44;2071136;69;20548;-76
2023/05/17 05:06:23;;;;;;;;;;;;;;;9.46;69.48;92835.63;2070984;69;20167;-76
2023/05/17 05:08:49;;;;;;;;;;;;;;;9.00;70.49;92836.75;2071112;69;20055;-75
2023/05/17 05:11:15;;;;;;;;;;;;;;;9.01;70.49;92832.59;2071186;69;20048;-77
2023/05/17 05:13:42;;;;;;;;;;;;;;;8.89;71.58;92841.66;2071078;69;20059;-77
2023/05/17 05:16:08;;;;;;;;;;;;;;;9.14;70.12;92841.25;2070975;69;20429;-76
2023/05/17 05:18:36;;;;;;;;;;;;;;;9.34;70.20;92841.88;2071125;69;20059;-76
2023/05/17 05:21:03;;;;;;;;;;;;;;;9.10;69.82;92840.97;2071450;69;20060;-76
2023/05/17 05:23:29;;;;;;;;;;;;;;;9.54;69.19;92845.31;2068346;69;20052;-77
2023/05/17 05:25:56;;;;;;;;;;;;;;;9.52;68.96;92852.88;2071125;69;20076;-76
2023/05/17 05:28:23;;;;;;;;;;;;;;;9.43;69.70;92855.13;2071538;69;20128;-76
2023/05/17 05:30:49;;;;;;;;;;;;;;;9.60;68.96;92851.34;2071583;69;20567;-76
2023/05/17 05:33:14;;;;;;;;;;;;;;;9.06;71.11;92846.31;2071662;69;20067;-76
2023/05/17 05:35:42;;;;;;;;;;;;;;;8.71;72.29;92848.09;2072019;69;20048;-76
2023/05/17 05:38:08;;;;;;;;;;;;;;;8.55;71.94;92856.09;2071386;69;20053;-76
2023/05/17 05:40:36;;;;;;;;;;;;;;;8.79;71.93;92854.25;2072109;69;20137;-76
2023/05/17 05:43:02;;;;;;;;;;;;;;;9.27;70.85;92864.56;2071548;69;20139;-76
2023/05/17 05:45:28;;;;;;;;;;;;;;;9.10;70.45;92865.50;2072038;69;20048;-75
2023/05/17 05:47:58;;;;;;;;;;;;;;;9.29;69.94;92871.03;2068981;69;20052;-76
2023/05/17 05:50:28;;;;;;;;;;;;;;;9.51;69.41;92860.56;2071575;69;20142;-75
2023/05/17 05:53:00;;;;;;;;;;;;;;;9.43;68.96;92862.81;2071460;69;20052;-76
2023/05/17 05:55:26;;;;;;;;;;;;;;;9.14;68.51;92860.91;2071627;69;20045;-75
2023/05/17 05:57:52;;;;;;;;;;;;;;;9.43;68.34;92871.25;2071619;69;20048;-76
2023/05/17 06:00:18;;;;;;;;;;;;;;;9.74;68.00;92873.31;2071603;69;20040;-76
2023/05/17 06:02:45;;;;;;;;;;;;;;;9.80;66.97;92868.81;2072202;69;20527;-76
2023/05/17 06:05:10;;;;;;;;;;;;;;;9.40;68.78;92866.84;2071615;69;20556;-76
2023/05/17 06:07:36;;;;;;;;;;;;;;;9.72;67.83;92871.09;2071502;69;20576;-76
2023/05/17 06:10:02;;;;;;;;;;;;;;;9.98;67.30;92868.53;2072098;69;20500;-76
2023/05/17 06:12:28;;;;;;;;;;;;;;;9.92;66.62;92874.50;2072107;69;20107;-76
2023/05/17 06:14:53;;;;;;;;;;;;;;;9.83;66.42;92869.69;2071500;69;20088;-76
2023/05/17 06:17:20;;;;;;;;;;;;;;;9.97;67.44;92867.81;2072207;69;20059;-76
2023/05/17 06:19:49;;;;;;;;;;;;;;;10.03;66.96;92873.09;2072012;69;20052;-75
2023/05/17 06:22:15;;;;;;;;;;;;;;;10.19;66.35;92876.97;2071361;69;20057;-75
2023/05/17 06:24:40;;;;;;;;;;;;;;;10.16;65.95;92872.53;2071959;69;20079;-76
2023/05/17 06:27:06;;;;;;;;;;;;;;;10.38;65.78;92876.09;2072015;69;20091;-75
2023/05/17 06:29:33;;;;;;;;;;;;;;;10.07;65.61;92879.72;2071981;69;20048;-76
2023/05/17 06:31:58;;;;;;;;;;;;;;;10.31;65.52;92880.59;2071937;69;20057;-76
2023/05/17 06:34:25;;;;;;;;;;;;;;;10.30;64.97;92876.31;2071979;69;20051;-75
2023/05/17 06:36:51;;;;;;;;;;;;;;;10.09;66.11;92882.69;2071800;69;20048;-77
2023/05/17 06:39:18;;;;;;;;;;;;;;;10.23;64.55;92882.13;2071891;69;20052;-77
2023/05/17 06:41:43;;;;;;;;;;;;;;;9.79;65.81;92877.84;2071381;69;20049;-77
2023/05/17 06:44:11;;;;;;;;;;;;;;;9.42;66.58;92881.03;2071360;69;20044;-77
2023/05/17 06:46:38;;;;;;;;;;;;;;;10.02;64.91;92877.25;2071992;69;20051;-77
2023/05/17 06:49:04;;;;;;;;;;;;;;;10.16;65.33;92878.91;2071421;69;20041;-76
2023/05/17 06:51:30;;;;;;;;;;;;;;;10.13;65.77;92888.56;2058216;69;20567;-76
2023/05/17 06:53:56;;;;;;;;;;;;;;;10.04;65.89;92892.19;2055631;69;20057;-77
2023/05/17 06:56:23;;;;;;;;;;;;;;;10.25;65.79;92894.25;2068970;69;20046;-76
2023/05/17 06:58:48;;;;;;;;;;;;;;;10.11;65.15;92901.75;2056053;70;20090;-75
2023/05/17 07:01:14;;;;;;;;;;;;;;;9.59;66.51;92897.66;2055922;70;20101;-76
2023/05/17 07:03:39;;;;;;;;;;;;;;;9.51;67.02;92896.38;2055660;70;20051;-75
2023/05/17 07:06:10;;;;;;;;;;;;;;;10.03;66.11;92901.94;2055931;70;20121;-75
2023/05/17 07:08:35;;;;;;;;;;;;;;;9.87;66.27;92909.31;2056477;69;20058;-75
2023/05/17 07:11:03;;;;;;;;;;;;;;;10.28;65.12;92909.94;2056270;70;20050;-74
2023/05/17 07:13:28;;;;;;;;;;;;;;;9.82;66.99;92911.13;2056262;69;20111;-75
2023/05/17 07:15:54;;;;;;;;;;;;;;;10.09;66.29;92910.81;2055903;70;20169;-76
2023/05/17 07:18:20;;;;;;;;;;;;;;;10.24;66.02;92915.31;2055573;70;20051;-76
2023/05/17 07:20:46;;;;;;;;;;;;;;;10.23;66.08;92913.06;2065856;69;20043;-77
2023/05/17 07:23:11;;;;;;;;;;;;;;;10.29;65.74;92913.50;2068640;69;20050;-76
2023/05/17 07:25:41;;;;;;;;;;;;;;;10.43;65.05;92912.34;2055660;69;20146;-75
2023/05/17 07:28:22;;;;;;;;;;;;;;;10.65;64.85;92915.84;2068634;69;20062;-75
2023/05/17 07:30:47;;;;;;;;;;;;;;;10.47;63.71;92920.31;2056011;70;20489;-75
2023/05/17 07:33:13;;;;;;;;;;;;;;;10.43;64.61;92922.84;2056045;70;20046;-75
2023/05/17 07:35:39;;;;;;;;;;;;;;;10.60;63.67;92925.38;2068852;69;20186;-75
2023/05/17 07:38:06;;;;;;;;;;;;;;;10.47;63.41;92928.75;2055932;69;20040;-76
2023/05/17 07:40:31;;;;;;;;;;;;;;;10.57;63.51;92923.75;2055856;70;20081;-75
2023/05/17 07:42:56;;;;;;;;;;;;;;;10.52;62.88;92921.31;2056620;70;20050;-75
2023/05/17 07:45:22;;;;;;;;;;;;;;;10.78;62.36;92922.25;2068630;69;20055;-76
2023/05/17 07:47:48;;;;;;;;;;;;;;;10.62;63.71;92930.41;2055723;69;20054;-76
2023/05/17 07:50:14;;;;;;;;;;;;;;;10.85;62.58;92924.84;2055486;70;20143;-75
2023/05/17 07:52:40;;;;;;;;;;;;;;;10.86;61.54;92915.06;2055539;70;20065;-75
2023/05/17 07:55:08;;;;;;;;;;;;;;;10.99;61.17;92927.81;2068487;69;20054;-75
2023/05/17 07:57:35;;;;;;;;;;;;;;;10.78;61.83;92920.19;2055594;69;20050;-75
2023/05/17 08:00:01;;;;;;;;;;;;;;;10.42;60.41;92919.31;2055739;70;20054;-75
2023/05/17 08:02:37;;;;;;;;;;;;;;;10.71;60.45;92926.03;2055513;70;20183;-74
2023/05/17 08:05:02;;;;;;;;;;;;;;;10.75;60.01;92929.09;2055705;69;20150;-75
2023/05/17 08:07:29;;;;;;;;;;;;;;;11.05;60.22;92930.28;2055502;70;20058;-75
2023/05/17 08:09:54;;;;;;;;;;;;;;;11.02;60.21;92935.06;2055674;70;20502;-75
2023/05/17 08:12:21;;;;;;;;;;;;;;;10.84;60.08;92937.44;2055519;70;20062;-74
2023/05/17 08:14:47;;;;;;;;;;;;;;;10.75;59.54;92943.19;2068504;69;20054;-75
2023/05/17 08:17:13;;;;;;;;;;;;;;;10.67;59.71;92943.38;2055537;69;20493;-76
2023/05/17 08:19:41;;;;;;;;;;;;;;;10.66;61.61;92947.53;2055411;70;20061;-76
2023/05/17 08:22:07;;;;;;;;;;;;;;;10.93;60.93;92945.06;2068286;69;20137;-75
2023/05/17 08:24:33;;;;;;;;;;;;;;;10.92;60.33;92952.06;2055409;69;20149;-75
2023/05/17 08:26:59;;;;;;;;;;;;;;;11.07;60.92;92956.50;2055500;69;20058;-76
2023/05/17 08:29:24;;;;;;;;;;;;;;;10.99;60.80;92946.78;2068332;69;20139;-76
2023/05/17 08:31:51;;;;;;;;;;;;;;;10.88;61.62;92960.25;2068386;69;20103;-75
2023/05/17 08:34:17;;;;;;;;;;;;;;;10.89;60.59;92961.72;2055352;70;20050;-75
2023/05/17 08:36:44;;;;;;;;;;;;;;;10.62;61.12;92964.19;2055234;69;20181;-74
2023/05/17 08:39:11;;;;;;;;;;;;;;;10.72;59.87;92962.03;2055333;69;20057;-75
2023/05/17 08:41:37;;;;;;;;;;;;;;;10.59;59.42;92968.22;2055383;70;20089;-75
2023/05/17 08:44:04;;;;;;;;;;;;;;;10.92;60.12;92968.22;2055470;69;20090;-76
2023/05/17 08:46:31;;;;;;;;;;;;;;;10.81;58.67;92957.63;2068434;69;20042;-75
2023/05/17 08:48:58;;;;;;;;;;;;;;;11.03;58.70;92964.69;2055379;70;20546;-74
2023/05/17 08:51:25;;;;;;;;;;;;;;;11.19;58.54;92962.91;2070672;69;20506;-74
2023/05/17 08:53:51;;;;;;;;;;;;;;;11.16;58.03;92975.38;2067676;69;20049;-78
2023/05/17 08:56:18;;;;;;;;;;;;;;;10.97;58.07;92966.41;2068222;69;20083;-76
2023/05/17 08:58:44;;;;;;;;;;;;;;;10.62;58.49;92978.25;2068484;69;20061;-78
2023/05/17 09:01:11;;;;;;;;;;;;;;;10.30;58.35;92971.25;2068163;69;20401;-77
2023/05/17 09:03:39;;;;;;;;;;;;;;;10.58;59.88;92975.16;2067255;69;20132;-77
2023/05/17 09:06:04;;;;;;;;;;;;;;;10.80;59.27;92990.69;2068173;69;20056;-75
2023/05/17 09:08:31;;;;;;;;;;;;;;;10.30;58.97;92983.22;2064966;69;20634;-77
2023/05/17 09:10:58;;;;;;;;;;;;;;;10.59;59.13;92979.47;2068220;69;20118;-76
2023/05/17 09:13:24;;;;;;;;;;;;;;;10.78;58.38;92981.41;2068491;69;20065;-77
2023/05/17 09:15:53;;;;;;;;;;;;;;;10.78;58.72;92987.75;2068242;69;20379;-79
2023/05/17 09:18:27;;;;;;;;;;;;;;;11.03;58.87;92992.84;2068210;69;20475;-77
2023/05/17 09:20:54;;;;;;;;;;;;;;;11.09;57.67;92993.25;2067924;69;20052;-75
2023/05/17 09:23:20;;;;;;;;;;;;;;;11.22;58.55;92991.19;2068122;69;20095;-79
2023/05/17 09:25:46;;;;;;;;;;;;;;;11.36;58.27;92990.03;2067604;69;20092;-77
2023/05/17 09:28:13;;;;;;;;;;;;;;;11.51;57.72;92985.25;2068225;69;20076;-78
2023/05/17 09:30:40;;;;;;;;;;;;;;;11.56;57.99;92998.25;2067652;69;20045;-81
2023/05/17 09:33:10;;;;;;;;;;;;;;;10.99;57.00;92989.78;2068158;69;20053;-80
2023/05/17 09:35:36;;;;;;;;;;;;;;;10.78;57.07;92995.47;2070160;69;20049;-76
2023/05/17 09:38:08;;;;;;;;;;;;;;;10.65;57.98;93003.13;2069994;69;20481;-76
2023/05/17 09:40:47;;;;;;;;;;;;;;;10.78;57.06;92990.56;2068344;69;20527;-76
2023/05/17 09:43:15;;;;;;;;;;;;;;;10.73;56.60;92999.38;2068139;69;20083;-76
2023/05/17 09:45:41;;;;;;;;;;;;;;;11.08;56.86;93002.31;2068038;69;20406;-76
2023/05/17 09:48:13;;;;;;;;;;;;;;;10.59;56.93;93002.00;2068340;69;20057;-79
2023/05/17 09:50:42;;;;;;;;;;;;;;;11.03;56.00;93006.22;2060304;69;20055;-76
2023/05/17 09:53:21;;;;;;;;;;;;;;;10.60;56.28;93012.66;2051932;70;20054;-76
2023/05/17 09:55:47;;;;;;;;;;;;;;;11.14;57.04;93014.72;2052122;70;20105;-75
2023/05/17 09:58:12;;;;;;;;;;;;;;;10.95;56.86;93006.44;2052076;70;20090;-75
2023/05/17 10:00:40;;;;;;;;;;;;;;;10.09;57.87;93009.25;2048682;70;20054;-75
2023/05/17 10:03:06;;;;;;;;;;;;;;;10.28;58.99;93010.50;2051965;70;20147;-76
2023/05/17 10:05:32;;;;;;;;;;;;;;;10.50;58.36;93005.63;2052181;69;20055;-74
2023/05/17 10:07:57;;;;;;;;;;;;;;;10.21;58.37;93006.50;2048653;70;20417;-75
2023/05/17 10:10:23;;;;;;;;;;;;;;;10.70;57.91;93015.38;2052439;70;20050;-76
2023/05/17 10:12:51;;;;;;;;;;;;;;;11.05;56.79;93009.91;2052110;70;20468;-77
2023/05/17 10:15:17;;;;;;;;;;;;;;;10.80;57.19;93006.84;2052669;70;20046;-76
2023/05/17 10:17:43;;;;;;;;;;;;;;;10.31;58.42;92998.78;2052462;70;20058;-78
2023/05/17 10:20:10;;;;;;;;;;;;;;;10.17;58.31;93004.19;2049144;70;20120;-76
2023/05/17 10:22:36;;;;;;;;;;;;;;;10.45;58.80;92999.00;2052272;70;20063;-77
2023/05/17 10:25:03;;;;;;;;;;;;;;;10.82;57.75;93007.00;2049283;70;20050;-77
2023/05/17 10:27:29;;;;;;;;;;;;;;;11.14;56.29;93003.44;2052582;70;20113;-76
2023/05/17 10:29:56;;;;;;;;;;;;;;;10.78;57.31;93007.47;2052378;70;20050;-75
2023/05/17 10:32:25;;;;;;;;;;;;;;;10.92;57.13;93002.03;2049113;70;20047;-75
2023/05/17 10:34:51;;;;;;;;;;;;;;;10.52;57.52;92998.03;2052936;70;20053;-75
2023/05/17 10:37:18;;;;;;;;;;;;;;;10.97;57.28;93005.84;2052266;70;20098;-75
2023/05/17 10:39:45;;;;;;;;;;;;;;;11.01;56.36;93000.47;2052454;70;20058;-75
2023/05/17 10:42:12;;;;;;;;;;;;;;;11.10;56.51;93008.81;2052456;70;20054;-75
2023/05/17 10:44:38;;;;;;;;;;;;;;;10.83;56.08;93011.28;2049138;70;20051;-75
2023/05/17 10:47:04;;;;;;;;;;;;;;;10.64;56.66;92998.09;2052279;70;20461;-75
2023/05/17 10:49:31;;;;;;;;;;;;;;;11.04;57.34;93011.25;2052277;70;20090;-77
2023/05/17 10:52:09;;;;;;;;;;;;;;;11.37;55.78;93002.75;2052246;70;20551;-76
2023/05/17 10:54:35;;;;;;;;;;;;;;;10.45;55.02;93001.81;2049010;70;20078;-76
2023/05/17 10:57:03;;;;;;;;;;;;;;;11.02;55.65;92990.66;2052248;70;20120;-76
2023/05/17 10:59:30;;;;;;;;;;;;;;;10.93;56.56;93000.66;2052399;70;20078;-76
2023/05/17 11:01:56;;;;;;;;;;;;;;;10.52;56.39;92991.69;2052390;70;20128;-75
2023/05/17 11:04:24;;;;;;;;;;;;;;;10.46;57.95;93002.53;2052407;70;20050;-76
2023/05/17 11:06:55;;;;;;;;;;;;;;;11.20;56.30;93014.34;2052225;70;20058;-75
2023/05/17 11:09:22;;;;;;;;;;;;;;;10.22;56.16;92996.00;2049183;70;20058;-74
2023/05/17 11:12:03;;;;;;;;;;;;;;;10.88;56.79;93008.13;2052397;70;20049;-75
2023/05/17 11:14:44;;;;;;;;;;;;;;;11.28;56.30;93009.25;2052344;70;20083;-76
2023/05/17 11:17:17;;;;;;;;;;;;;;;10.84;55.44;93015.56;2052635;70;20089;-77
2023/05/17 11:19:57;;;;;;;;;;;;;;;11.33;54.53;93002.50;2050282;70;20039;-75
2023/05/17 11:22:28;;;;;;;;;;;;;;;10.85;55.28;93012.13;2053204;70;20137;-74
2023/05/17 11:24:56;;;;;;;;;;;;;;;11.40;55.78;93003.63;2046863;70;20107;-75
2023/05/17 11:27:26;;;;;;;;;;;;;;;11.41;54.70;93005.84;2052863;70;20089;-75
2023/05/17 11:29:57;;;;;;;;;;;;;;;10.53;56.32;93004.41;2053780;70;20086;-77
2023/05/17 11:32:31;;;;;;;;;;;;;;;10.84;56.91;93001.50;2054030;70;20054;-76
2023/05/17 11:35:00;;;;;;;;;;;;;;;11.24;55.67;92996.97;2053118;70;20050;-74
2023/05/17 11:37:26;;;;;;;;;;;;;;;11.67;56.32;92995.44;2052297;70;20077;-76
2023/05/17 11:40:03;;;;;;;;;;;;;;;10.74;56.19;92992.41;2055658;69;20084;-76
2023/05/17 11:42:29;;;;;;;;;;;;;;;10.94;56.35;92991.59;2066709;69;20078;-74
2023/05/17 11:45:00;;;;;;;;;;;;;;;11.48;54.98;92992.84;2061441;69;20125;-75
2023/05/17 11:47:27;;;;;;;;;;;;;;;11.16;56.16;92985.91;2059085;69;20061;-75
2023/05/17 11:49:59;;;;;;;;;;;;;;;11.55;55.29;92994.72;2058736;69;20137;-78
2023/05/17 11:52:24;;;;;;;;;;;;;;;11.26;55.86;92991.44;2057215;69;20049;-75
2023/05/17 11:54:51;;;;;;;;;;;;;;;11.91;54.70;92992.66;2057080;69;20145;-76
2023/05/17 11:57:16;;;;;;;;;;;;;;;12.17;54.53;92990.69;2060658;69;20054;-77
2023/05/17 11:59:45;;;;;;;;;;;;;;;12.35;53.10;92997.41;2057835;69;20508;-75
2023/05/17 12:02:24;;;;;;;;;;;;;;;11.32;53.83;92994.69;2059546;69;20054;-77
2023/05/17 12:04:52;;;;;;;;;;;;;;;11.66;54.19;92999.63;2059653;69;20545;-75
2023/05/17 12:07:18;;;;;;;;;;;;;;;11.29;54.13;92995.88;2072048;69;20500;-77
2023/05/17 12:09:43;;;;;;;;;;;;;;;11.89;54.12;92998.19;2058860;69;20070;-76
2023/05/17 12:12:09;;;;;;;;;;;;;;;11.79;53.10;92998.28;2058808;69;20097;-76
2023/05/17 12:14:35;;;;;;;;;;;;;;;11.24;54.03;92994.16;2055476;69;20094;-80
2023/05/17 12:17:03;;;;;;;;;;;;;;;11.69;55.28;93000.50;2055466;70;20170;-76
2023/05/17 12:19:29;;;;;;;;;;;;;;;11.42;54.13;93000.94;2056419;69;20090;-75
2023/05/17 12:22:06;;;;;;;;;;;;;;;11.59;53.64;93008.31;2071393;69;20151;-75
2023/05/17 12:24:38;;;;;;;;;;;;;;;11.24;55.23;93002.63;2071809;69;20478;-76
2023/05/17 12:27:04;;;;;;;;;;;;;;;11.45;54.84;93000.47;2058748;69;20050;-80
2023/05/17 12:29:30;;;;;;;;;;;;;;;11.94;54.51;92995.00;2067703;69;20046;-76
2023/05/17 12:31:59;;;;;;;;;;;;;;;11.55;53.59;92991.91;2068309;69;20051;-76
2023/05/17 12:34:35;;;;;;;;;;;;;;;11.32;53.94;92991.84;2054423;69;20077;-76
2023/05/17 12:37:01;;;;;;;;;;;;;;;11.12;54.40;92997.66;2049746;69;20175;-74
2023/05/17 12:39:27;;;;;;;;;;;;;;;11.06;55.23;92996.56;2053016;69;20137;-78
2023/05/17 12:41:52;;;;;;;;;;;;;;;11.68;55.64;92987.72;2057157;69;20057;-75
2023/05/17 12:44:19;;;;;;;;;;;;;;;11.47;55.30;92994.19;2057804;69;20054;-75
2023/05/17 12:46:52;;;;;;;;;;;;;;;11.62;54.71;92993.72;2071472;69;20093;-75
2023/05/17 12:49:19;;;;;;;;;;;;;;;11.60;54.42;92993.59;2058569;69;20053;-76
2023/05/17 12:51:45;;;;;;;;;;;;;;;11.97;53.97;92992.31;2058602;69;20068;-76
2023/05/17 12:54:11;;;;;;;;;;;;;;;11.48;54.47;92998.50;2071784;69;20054;-76